Terminal Aerodrome Forecast
Issued by NWS

Home | Current Version | Previous Version | Text Only | Print | Product List | Glossary On
Versions: 1 2 3 4 5 6 7 8 9 10 11 12 13 14 15 16 17 18 19 20 21
000
FTUS43 KDVN 230500
TAFBRL
TAF
KBRL 230520Z 2306/2406 19012KT P6SM OVC011
     FM230900 18012KT P6SM OVC008
     FM231200 17009KT 4SM -SHRA BR OVC006
     FM231600 16009KT 2SM -RA BR OVC004
     FM232200 14006KT 1SM RA BR OVC004
     FM240400 25006KT 2SM -RA BR OVC010=

USA.gov is the U.S. government's official web portal to all federal, state and local government web resources and services.